sensor_id;sensor_type;location;lat;lon;timestamp;P1;durP1;ratioP1;P2;durP2;ratioP2
19038;SDS011;9652;49.014;12.052;2023-01-30T00:01:22;13.83;;;9.40;;
19038;SDS011;9652;49.014;12.052;2023-01-30T00:03:53;14.10;;;10.80;;
19038;SDS011;9652;49.014;12.052;2023-01-30T00:06:20;15.83;;;10.17;;
19038;SDS011;9652;49.014;12.052;2023-01-30T00:08:49;14.53;;;9.97;;
19038;SDS011;9652;49.014;12.052;2023-01-30T00:11:17;13.77;;;9.57;;
19038;SDS011;9652;49.014;12.052;2023-01-30T00:13:46;13.57;;;10.37;;
19038;SDS011;9652;49.014;12.052;2023-01-30T00:16:14;14.77;;;10.47;;
19038;SDS011;9652;49.014;12.052;2023-01-30T00:18:43;12.47;;;9.00;;
19038;SDS011;9652;49.014;12.052;2023-01-30T00:21:12;12.63;;;9.33;;
19038;SDS011;9652;49.014;12.052;2023-01-30T00:23:40;11.47;;;8.93;;
19038;SDS011;9652;49.014;12.052;2023-01-30T00:26:09;14.53;;;9.30;;
19038;SDS011;9652;49.014;12.052;2023-01-30T00:28:37;13.17;;;9.50;;
19038;SDS011;9652;49.014;12.052;2023-01-30T00:31:05;16.33;;;11.27;;
19038;SDS011;9652;49.014;12.052;2023-01-30T00:33:33;15.43;;;10.13;;
19038;SDS011;9652;49.014;12.052;2023-01-30T00:36:03;14.83;;;10.53;;
19038;SDS011;9652;49.014;12.052;2023-01-30T00:38:32;15.27;;;10.10;;
19038;SDS011;9652;49.014;12.052;2023-01-30T00:41:00;15.73;;;9.80;;
19038;SDS011;9652;49.014;12.052;2023-01-30T00:43:27;15.50;;;10.70;;
19038;SDS011;9652;49.014;12.052;2023-01-30T00:46:14;14.57;;;9.80;;
19038;SDS011;9652;49.014;12.052;2023-01-30T00:49:09;13.20;;;9.20;;
19038;SDS011;9652;49.014;12.052;2023-01-30T00:51:36;14.50;;;10.47;;
19038;SDS011;9652;49.014;12.052;2023-01-30T00:54:05;15.47;;;9.80;;
19038;SDS011;9652;49.014;12.052;2023-01-30T00:56:32;15.53;;;10.27;;
19038;SDS011;9652;49.014;12.052;2023-01-30T00:58:59;12.83;;;8.90;;
19038;SDS011;9652;49.014;12.052;2023-01-30T01:01:26;14.53;;;12.03;;
19038;SDS011;9652;49.014;12.052;2023-01-30T01:03:53;13.53;;;10.13;;
19038;SDS011;9652;49.014;12.052;2023-01-30T01:06:20;16.07;;;10.87;;
19038;SDS011;9652;49.014;12.052;2023-01-30T01:08:47;12.07;;;9.23;;
19038;SDS011;9652;49.014;12.052;2023-01-30T01:11:16;14.30;;;9.60;;
19038;SDS011;9652;49.014;12.052;2023-01-30T01:13:50;14.17;;;10.00;;
19038;SDS011;9652;49.014;12.052;2023-01-30T01:16:18;15.33;;;10.07;;
19038;SDS011;9652;49.014;12.052;2023-01-30T01:18:46;16.20;;;9.40;;
19038;SDS011;9652;49.014;12.052;2023-01-30T01:21:14;13.57;;;10.00;;
19038;SDS011;9652;49.014;12.052;2023-01-30T01:23:42;15.13;;;10.83;;
19038;SDS011;9652;49.014;12.052;2023-01-30T01:26:09;13.90;;;9.50;;
19038;SDS011;9652;49.014;12.052;2023-01-30T01:28:38;13.40;;;10.30;;
19038;SDS011;9652;49.014;12.052;2023-01-30T01:31:08;16.17;;;10.00;;
19038;SDS011;9652;49.014;12.052;2023-01-30T01:33:37;13.07;;;9.47;;
19038;SDS011;9652;49.014;12.052;2023-01-30T01:36:05;14.40;;;9.03;;
19038;SDS011;9652;49.014;12.052;2023-01-30T01:38:33;13.13;;;9.60;;
19038;SDS011;9652;49.014;12.052;2023-01-30T01:41:00;15.90;;;10.43;;
19038;SDS011;9652;49.014;12.052;2023-01-30T01:43:27;14.47;;;10.63;;
19038;SDS011;9652;49.014;12.052;2023-01-30T01:46:01;16.47;;;10.07;;
19038;SDS011;9652;49.014;12.052;2023-01-30T01:48:37;14.20;;;10.03;;
19038;SDS011;9652;49.014;12.052;2023-01-30T01:51:10;15.07;;;9.70;;
19038;SDS011;9652;49.014;12.052;2023-01-30T01:53:45;15.30;;;10.90;;
19038;SDS011;9652;49.014;12.052;2023-01-30T01:56:19;16.83;;;12.27;;
19038;SDS011;9652;49.014;12.052;2023-01-30T01:58:48;16.43;;;11.47;;
19038;SDS011;9652;49.014;12.052;2023-01-30T02:01:22;16.10;;;11.27;;
19038;SDS011;9652;49.014;12.052;2023-01-30T02:03:52;16.43;;;10.83;;
19038;SDS011;9652;49.014;12.052;2023-01-30T02:06:26;16.73;;;11.77;;
19038;SDS011;9652;49.014;12.052;2023-01-30T02:08:54;17.43;;;10.90;;
19038;SDS011;9652;49.014;12.052;2023-01-30T02:11:28;14.40;;;10.27;;
19038;SDS011;9652;49.014;12.052;2023-01-30T02:14:03;13.47;;;9.80;;
19038;SDS011;9652;49.014;12.052;2023-01-30T02:16:32;14.20;;;9.43;;
19038;SDS011;9652;49.014;12.052;2023-01-30T02:19:02;15.00;;;10.67;;
19038;SDS011;9652;49.014;12.052;2023-01-30T02:21:49;13.00;;;9.93;;
19038;SDS011;9652;49.014;12.052;2023-01-30T02:25:01;12.60;;;9.27;;
19038;SDS011;9652;49.014;12.052;2023-01-30T02:31:32;12.70;;;9.60;;
19038;SDS011;9652;49.014;12.052;2023-01-30T02:34:16;16.53;;;10.23;;
19038;SDS011;9652;49.014;12.052;2023-01-30T02:37:03;11.90;;;9.23;;
19038;SDS011;9652;49.014;12.052;2023-01-30T02:39:47;16.30;;;10.10;;
19038;SDS011;9652;49.014;12.052;2023-01-30T02:42:33;12.97;;;9.10;;
19038;SDS011;9652;49.014;12.052;2023-01-30T02:45:11;13.73;;;9.53;;
19038;SDS011;9652;49.014;12.052;2023-01-30T02:47:52;12.37;;;9.13;;
19038;SDS011;9652;49.014;12.052;2023-01-30T02:50:26;12.27;;;10.03;;
19038;SDS011;9652;49.014;12.052;2023-01-30T02:53:00;12.17;;;9.83;;
19038;SDS011;9652;49.014;12.052;2023-01-30T02:55:31;12.97;;;9.40;;
19038;SDS011;9652;49.014;12.052;2023-01-30T02:57:58;11.97;;;9.33;;
19038;SDS011;9652;49.014;12.052;2023-01-30T03:00:29;11.90;;;8.90;;
19038;SDS011;9652;49.014;12.052;2023-01-30T03:03:44;14.30;;;9.67;;
19038;SDS011;9652;49.014;12.052;2023-01-30T03:06:52;13.40;;;9.50;;
19038;SDS011;9652;49.014;12.052;2023-01-30T03:09:35;13.23;;;9.00;;
19038;SDS011;9652;49.014;12.052;2023-01-30T03:12:17;12.47;;;9.77;;
19038;SDS011;9652;49.014;12.052;2023-01-30T03:14:55;12.83;;;9.67;;
19038;SDS011;9652;49.014;12.052;2023-01-30T03:17:31;13.30;;;10.20;;
19038;SDS011;9652;49.014;12.052;2023-01-30T03:20:03;11.67;;;8.33;;
19038;SDS011;9652;49.014;12.052;2023-01-30T03:22:31;12.10;;;8.87;;
19038;SDS011;9652;49.014;12.052;2023-01-30T03:24:58;14.03;;;9.13;;
19038;SDS011;9652;49.014;12.052;2023-01-30T03:27:25;13.50;;;9.57;;
19038;SDS011;9652;49.014;12.052;2023-01-30T03:29:52;12.53;;;9.53;;
19038;SDS011;9652;49.014;12.052;2023-01-30T03:32:19;11.33;;;8.90;;
19038;SDS011;9652;49.014;12.052;2023-01-30T03:34:46;12.00;;;8.73;;
19038;SDS011;9652;49.014;12.052;2023-01-30T03:37:15;13.27;;;9.47;;
19038;SDS011;9652;49.014;12.052;2023-01-30T03:39:42;15.23;;;9.73;;
19038;SDS011;9652;49.014;12.052;2023-01-30T03:42:09;13.67;;;9.37;;
19038;SDS011;9652;49.014;12.052;2023-01-30T03:44:36;13.20;;;8.90;;
19038;SDS011;9652;49.014;12.052;2023-01-30T03:47:03;13.63;;;9.50;;
19038;SDS011;9652;49.014;12.052;2023-01-30T03:49:31;11.03;;;8.53;;
19038;SDS011;9652;49.014;12.052;2023-01-30T03:51:58;14.23;;;10.30;;
19038;SDS011;9652;49.014;12.052;2023-01-30T03:54:26;11.33;;;8.50;;
19038;SDS011;9652;49.014;12.052;2023-01-30T03:56:53;12.50;;;8.37;;
19038;SDS011;9652;49.014;12.052;2023-01-30T03:59:21;13.90;;;9.27;;
19038;SDS011;9652;49.014;12.052;2023-01-30T04:01:56;12.10;;;9.17;;
19038;SDS011;9652;49.014;12.052;2023-01-30T04:04:23;12.50;;;8.27;;
19038;SDS011;9652;49.014;12.052;2023-01-30T04:06:51;12.57;;;8.83;;
19038;SDS011;9652;49.014;12.052;2023-01-30T04:09:18;12.77;;;8.90;;
19038;SDS011;9652;49.014;12.052;2023-01-30T04:11:50;9.50;;;8.03;;
19038;SDS011;9652;49.014;12.052;2023-01-30T04:14:18;11.73;;;8.40;;
19038;SDS011;9652;49.014;12.052;2023-01-30T04:17:08;11.10;;;7.97;;
19038;SDS011;9652;49.014;12.052;2023-01-30T04:20:04;11.03;;;7.87;;
19038;SDS011;9652;49.014;12.052;2023-01-30T04:22:35;14.03;;;9.17;;
19038;SDS011;9652;49.014;12.052;2023-01-30T04:25:02;12.20;;;8.77;;
19038;SDS011;9652;49.014;12.052;2023-01-30T04:27:31;12.47;;;8.30;;
19038;SDS011;9652;49.014;12.052;2023-01-30T04:30:09;15.47;;;9.27;;
19038;SDS011;9652;49.014;12.052;2023-01-30T04:32:37;12.13;;;8.83;;
19038;SDS011;9652;49.014;12.052;2023-01-30T04:35:05;13.27;;;8.53;;
19038;SDS011;9652;49.014;12.052;2023-01-30T04:37:32;11.43;;;8.57;;
19038;SDS011;9652;49.014;12.052;2023-01-30T04:40:00;11.47;;;8.73;;
19038;SDS011;9652;49.014;12.052;2023-01-30T04:42:27;12.63;;;9.07;;
19038;SDS011;9652;49.014;12.052;2023-01-30T04:45:22;12.13;;;8.30;;
19038;SDS011;9652;49.014;12.052;2023-01-30T04:47:50;12.37;;;8.03;;
19038;SDS011;9652;49.014;12.052;2023-01-30T04:50:17;11.63;;;10.07;;
19038;SDS011;9652;49.014;12.052;2023-01-30T04:52:45;10.63;;;7.70;;
19038;SDS011;9652;49.014;12.052;2023-01-30T04:55:12;11.87;;;7.70;;
19038;SDS011;9652;49.014;12.052;2023-01-30T04:57:39;11.83;;;8.17;;
19038;SDS011;9652;49.014;12.052;2023-01-30T05:00:07;10.10;;;8.07;;
19038;SDS011;9652;49.014;12.052;2023-01-30T05:02:43;12.73;;;8.63;;
19038;SDS011;9652;49.014;12.052;2023-01-30T05:05:10;11.50;;;8.37;;
19038;SDS011;9652;49.014;12.052;2023-01-30T05:07:37;10.00;;;7.93;;
19038;SDS011;9652;49.014;12.052;2023-01-30T05:10:05;11.37;;;9.07;;
19038;SDS011;9652;49.014;12.052;2023-01-30T05:12:33;13.87;;;8.87;;
19038;SDS011;9652;49.014;12.052;2023-01-30T05:15:00;11.80;;;8.87;;
19038;SDS011;9652;49.014;12.052;2023-01-30T05:17:27;13.10;;;8.53;;
19038;SDS011;9652;49.014;12.052;2023-01-30T05:19:55;11.80;;;8.80;;
19038;SDS011;9652;49.014;12.052;2023-01-30T05:22:22;13.40;;;9.50;;
19038;SDS011;9652;49.014;12.052;2023-01-30T05:24:50;13.87;;;9.63;;
19038;SDS011;9652;49.014;12.052;2023-01-30T05:27:17;14.17;;;9.67;;
19038;SDS011;9652;49.014;12.052;2023-01-30T05:29:44;11.73;;;8.57;;
19038;SDS011;9652;49.014;12.052;2023-01-30T05:32:11;14.77;;;9.10;;
19038;SDS011;9652;49.014;12.052;2023-01-30T05:34:40;12.70;;;8.10;;
19038;SDS011;9652;49.014;12.052;2023-01-30T05:37:08;12.93;;;8.40;;
19038;SDS011;9652;49.014;12.052;2023-01-30T05:39:37;13.33;;;9.37;;
19038;SDS011;9652;49.014;12.052;2023-01-30T05:42:04;11.53;;;8.70;;
19038;SDS011;9652;49.014;12.052;2023-01-30T05:44:31;12.57;;;8.90;;
19038;SDS011;9652;49.014;12.052;2023-01-30T05:46:58;14.53;;;9.13;;
19038;SDS011;9652;49.014;12.052;2023-01-30T05:49:25;9.40;;;7.13;;
19038;SDS011;9652;49.014;12.052;2023-01-30T05:51:52;13.43;;;9.37;;
19038;SDS011;9652;49.014;12.052;2023-01-30T05:54:21;13.07;;;8.57;;
19038;SDS011;9652;49.014;12.052;2023-01-30T05:56:48;10.27;;;7.53;;
19038;SDS011;9652;49.014;12.052;2023-01-30T05:59:15;12.23;;;8.43;;
19038;SDS011;9652;49.014;12.052;2023-01-30T06:01:43;12.37;;;8.80;;
19038;SDS011;9652;49.014;12.052;2023-01-30T06:04:10;12.43;;;9.23;;
19038;SDS011;9652;49.014;12.052;2023-01-30T06:06:37;12.93;;;9.00;;
19038;SDS011;9652;49.014;12.052;2023-01-30T06:09:04;13.00;;;8.33;;
19038;SDS011;9652;49.014;12.052;2023-01-30T06:11:33;11.90;;;9.03;;
19038;SDS011;9652;49.014;12.052;2023-01-30T06:14:00;13.40;;;8.87;;
19038;SDS011;9652;49.014;12.052;2023-01-30T06:16:27;11.37;;;8.50;;
19038;SDS011;9652;49.014;12.052;2023-01-30T06:18:54;13.17;;;8.53;;
19038;SDS011;9652;49.014;12.052;2023-01-30T06:21:21;12.90;;;9.57;;
19038;SDS011;9652;49.014;12.052;2023-01-30T06:23:48;13.93;;;9.03;;
19038;SDS011;9652;49.014;12.052;2023-01-30T06:26:15;12.87;;;9.60;;
19038;SDS011;9652;49.014;12.052;2023-01-30T06:28:43;12.43;;;8.37;;
19038;SDS011;9652;49.014;12.052;2023-01-30T06:31:10;14.07;;;8.60;;
19038;SDS011;9652;49.014;12.052;2023-01-30T06:33:37;11.67;;;8.60;;
19038;SDS011;9652;49.014;12.052;2023-01-30T06:36:04;11.53;;;7.97;;
19038;SDS011;9652;49.014;12.052;2023-01-30T06:38:33;15.03;;;10.17;;
19038;SDS011;9652;49.014;12.052;2023-01-30T06:41:00;14.07;;;9.00;;
19038;SDS011;9652;49.014;12.052;2023-01-30T06:43:27;12.63;;;8.00;;
19038;SDS011;9652;49.014;12.052;2023-01-30T06:45:56;15.77;;;8.87;;
19038;SDS011;9652;49.014;12.052;2023-01-30T06:48:24;12.40;;;8.77;;
19038;SDS011;9652;49.014;12.052;2023-01-30T06:50:51;12.73;;;9.33;;
19038;SDS011;9652;49.014;12.052;2023-01-30T06:53:18;13.27;;;8.67;;
19038;SDS011;9652;49.014;12.052;2023-01-30T06:55:46;12.03;;;8.83;;
19038;SDS011;9652;49.014;12.052;2023-01-30T06:58:13;12.67;;;9.13;;
19038;SDS011;9652;49.014;12.052;2023-01-30T07:00:41;12.77;;;9.00;;
19038;SDS011;9652;49.014;12.052;2023-01-30T07:03:10;13.40;;;8.63;;
19038;SDS011;9652;49.014;12.052;2023-01-30T07:05:39;10.13;;;7.43;;
19038;SDS011;9652;49.014;12.052;2023-01-30T07:08:06;12.10;;;8.27;;
19038;SDS011;9652;49.014;12.052;2023-01-30T07:10:34;10.70;;;8.23;;
19038;SDS011;9652;49.014;12.052;2023-01-30T07:13:01;11.33;;;8.10;;
19038;SDS011;9652;49.014;12.052;2023-01-30T07:15:29;13.57;;;9.10;;
19038;SDS011;9652;49.014;12.052;2023-01-30T07:17:57;14.07;;;8.70;;
19038;SDS011;9652;49.014;12.052;2023-01-30T07:20:26;11.60;;;9.00;;
19038;SDS011;9652;49.014;12.052;2023-01-30T07:22:54;11.10;;;7.50;;
19038;SDS011;9652;49.014;12.052;2023-01-30T07:25:22;11.40;;;8.77;;
19038;SDS011;9652;49.014;12.052;2023-01-30T07:27:51;13.23;;;8.50;;
19038;SDS011;9652;49.014;12.052;2023-01-30T07:30:20;12.30;;;8.63;;
19038;SDS011;9652;49.014;12.052;2023-01-30T07:32:48;10.87;;;8.40;;
19038;SDS011;9652;49.014;12.052;2023-01-30T07:35:16;11.13;;;8.10;;
19038;SDS011;9652;49.014;12.052;2023-01-30T07:37:45;11.17;;;8.03;;
19038;SDS011;9652;49.014;12.052;2023-01-30T07:40:12;13.17;;;8.33;;
19038;SDS011;9652;49.014;12.052;2023-01-30T07:42:40;11.03;;;8.23;;
19038;SDS011;9652;49.014;12.052;2023-01-30T07:45:08;11.20;;;7.37;;
19038;SDS011;9652;49.014;12.052;2023-01-30T07:47:36;11.93;;;7.80;;
19038;SDS011;9652;49.014;12.052;2023-01-30T07:50:04;10.53;;;7.60;;
19038;SDS011;9652;49.014;12.052;2023-01-30T07:52:32;10.67;;;7.60;;
19038;SDS011;9652;49.014;12.052;2023-01-30T07:55:01;11.83;;;8.07;;
19038;SDS011;9652;49.014;12.052;2023-01-30T07:57:28;12.47;;;8.73;;
19038;SDS011;9652;49.014;12.052;2023-01-30T07:59:56;12.67;;;8.70;;
19038;SDS011;9652;49.014;12.052;2023-01-30T08:02:23;12.43;;;9.20;;
19038;SDS011;9652;49.014;12.052;2023-01-30T08:04:50;14.17;;;9.80;;
19038;SDS011;9652;49.014;12.052;2023-01-30T08:07:17;14.40;;;9.53;;
19038;SDS011;9652;49.014;12.052;2023-01-30T08:09:44;10.97;;;8.80;;
19038;SDS011;9652;49.014;12.052;2023-01-30T08:12:12;11.60;;;8.17;;
19038;SDS011;9652;49.014;12.052;2023-01-30T08:14:39;15.33;;;9.17;;
19038;SDS011;9652;49.014;12.052;2023-01-30T08:17:06;13.30;;;8.17;;
19038;SDS011;9652;49.014;12.052;2023-01-30T08:19:33;11.13;;;7.93;;
19038;SDS011;9652;49.014;12.052;2023-01-30T08:22:00;12.70;;;8.37;;
19038;SDS011;9652;49.014;12.052;2023-01-30T08:24:27;13.90;;;7.63;;
19038;SDS011;9652;49.014;12.052;2023-01-30T08:26:54;12.97;;;8.23;;
19038;SDS011;9652;49.014;12.052;2023-01-30T08:29:22;14.57;;;8.67;;
19038;SDS011;9652;49.014;12.052;2023-01-30T08:31:49;13.00;;;7.90;;
19038;SDS011;9652;49.014;12.052;2023-01-30T08:34:16;13.30;;;8.70;;
19038;SDS011;9652;49.014;12.052;2023-01-30T08:36:43;12.00;;;8.57;;
19038;SDS011;9652;49.014;12.052;2023-01-30T08:39:13;13.53;;;8.70;;
19038;SDS011;9652;49.014;12.052;2023-01-30T08:41:40;13.37;;;8.83;;
19038;SDS011;9652;49.014;12.052;2023-01-30T08:44:08;13.77;;;8.13;;
19038;SDS011;9652;49.014;12.052;2023-01-30T08:46:36;10.30;;;6.90;;
19038;SDS011;9652;49.014;12.052;2023-01-30T08:49:04;10.07;;;7.73;;
19038;SDS011;9652;49.014;12.052;2023-01-30T08:51:32;10.30;;;7.57;;
19038;SDS011;9652;49.014;12.052;2023-01-30T08:53:59;11.43;;;8.13;;
19038;SDS011;9652;49.014;12.052;2023-01-30T08:56:26;11.87;;;7.87;;
19038;SDS011;9652;49.014;12.052;2023-01-30T08:58:53;13.83;;;8.47;;
19038;SDS011;9652;49.014;12.052;2023-01-30T09:01:20;12.87;;;8.83;;
19038;SDS011;9652;49.014;12.052;2023-01-30T09:03:48;13.10;;;8.10;;
19038;SDS011;9652;49.014;12.052;2023-01-30T09:06:15;11.20;;;7.83;;
19038;SDS011;9652;49.014;12.052;2023-01-30T09:08:42;10.63;;;7.90;;
19038;SDS011;9652;49.014;12.052;2023-01-30T09:11:09;10.00;;;7.53;;
19038;SDS011;9652;49.014;12.052;2023-01-30T09:13:37;13.73;;;7.73;;
19038;SDS011;9652;49.014;12.052;2023-01-30T09:16:07;12.03;;;8.00;;
19038;SDS011;9652;49.014;12.052;2023-01-30T09:18:36;11.13;;;7.83;;
19038;SDS011;9652;49.014;12.052;2023-01-30T09:21:06;13.53;;;6.83;;
19038;SDS011;9652;49.014;12.052;2023-01-30T09:23:35;11.37;;;7.90;;
19038;SDS011;9652;49.014;12.052;2023-01-30T09:26:03;11.23;;;7.70;;
19038;SDS011;9652;49.014;12.052;2023-01-30T09:28:31;11.53;;;7.73;;
19038;SDS011;9652;49.014;12.052;2023-01-30T09:30:59;9.40;;;7.17;;
19038;SDS011;9652;49.014;12.052;2023-01-30T09:33:27;11.80;;;7.53;;
19038;SDS011;9652;49.014;12.052;2023-01-30T09:35:55;12.93;;;8.40;;
19038;SDS011;9652;49.014;12.052;2023-01-30T09:38:23;12.87;;;7.97;;
19038;SDS011;9652;49.014;12.052;2023-01-30T09:41:06;12.43;;;7.90;;
19038;SDS011;9652;49.014;12.052;2023-01-30T09:44:22;12.73;;;7.97;;
19038;SDS011;9652;49.014;12.052;2023-01-30T09:47:13;10.63;;;7.83;;
19038;SDS011;9652;49.014;12.052;2023-01-30T09:49:50;10.23;;;7.40;;
19038;SDS011;9652;49.014;12.052;2023-01-30T09:52:32;12.20;;;7.80;;
19038;SDS011;9652;49.014;12.052;2023-01-30T09:55:19;14.83;;;8.20;;
19038;SDS011;9652;49.014;12.052;2023-01-30T09:57:50;10.50;;;7.80;;
19038;SDS011;9652;49.014;12.052;2023-01-30T10:00:20;12.40;;;7.87;;
19038;SDS011;9652;49.014;12.052;2023-01-30T10:02:57;11.20;;;7.70;;
19038;SDS011;9652;49.014;12.052;2023-01-30T10:05:34;12.20;;;7.70;;
19038;SDS011;9652;49.014;12.052;2023-01-30T10:08:15;9.60;;;6.73;;
19038;SDS011;9652;49.014;12.052;2023-01-30T10:11:25;10.33;;;7.40;;
19038;SDS011;9652;49.014;12.052;2023-01-30T10:14:12;9.47;;;7.10;;
19038;SDS011;9652;49.014;12.052;2023-01-30T10:17:07;12.63;;;8.33;;
19038;SDS011;9652;49.014;12.052;2023-01-30T10:20:02;7.80;;;6.40;;
19038;SDS011;9652;49.014;12.052;2023-01-30T10:22:59;9.50;;;7.77;;
19038;SDS011;9652;49.014;12.052;2023-01-30T10:25:48;8.20;;;6.67;;
19038;SDS011;9652;49.014;12.052;2023-01-30T10:28:23;9.23;;;6.90;;
19038;SDS011;9652;49.014;12.052;2023-01-30T10:30:59;9.63;;;6.70;;
19038;SDS011;9652;49.014;12.052;2023-01-30T10:33:32;8.90;;;6.37;;
19038;SDS011;9652;49.014;12.052;2023-01-30T10:36:10;8.40;;;6.13;;
19038;SDS011;9652;49.014;12.052;2023-01-30T10:38:43;10.13;;;6.90;;
19038;SDS011;9652;49.014;12.052;2023-01-30T10:41:16;9.10;;;5.63;;
19038;SDS011;9652;49.014;12.052;2023-01-30T10:43:56;9.67;;;6.80;;
19038;SDS011;9652;49.014;12.052;2023-01-30T10:46:31;8.73;;;6.30;;
19038;SDS011;9652;49.014;12.052;2023-01-30T10:49:28;8.33;;;6.17;;
19038;SDS011;9652;49.014;12.052;2023-01-30T10:52:11;9.13;;;5.67;;
19038;SDS011;9652;49.014;12.052;2023-01-30T10:54:58;8.03;;;5.90;;
19038;SDS011;9652;49.014;12.052;2023-01-30T10:57:46;8.33;;;6.20;;
19038;SDS011;9652;49.014;12.052;2023-01-30T11:00:27;7.83;;;6.33;;
19038;SDS011;9652;49.014;12.052;2023-01-30T11:03:08;8.83;;;6.63;;
19038;SDS011;9652;49.014;12.052;2023-01-30T11:05:53;8.67;;;5.60;;
19038;SDS011;9652;49.014;12.052;2023-01-30T11:08:26;7.83;;;6.03;;
19038;SDS011;9652;49.014;12.052;2023-01-30T11:10:57;7.10;;;6.37;;
19038;SDS011;9652;49.014;12.052;2023-01-30T11:13:26;8.87;;;6.47;;
19038;SDS011;9652;49.014;12.052;2023-01-30T11:15:57;8.60;;;6.33;;
19038;SDS011;9652;49.014;12.052;2023-01-30T11:18:30;9.53;;;6.73;;
19038;SDS011;9652;49.014;12.052;2023-01-30T11:21:02;8.30;;;6.83;;
19038;SDS011;9652;49.014;12.052;2023-01-30T11:23:34;8.63;;;6.50;;
19038;SDS011;9652;49.014;12.052;2023-01-30T11:26:05;8.90;;;6.33;;
19038;SDS011;9652;49.014;12.052;2023-01-30T11:28:42;8.13;;;5.73;;
19038;SDS011;9652;49.014;12.052;2023-01-30T11:31:16;8.43;;;6.53;;
19038;SDS011;9652;49.014;12.052;2023-01-30T11:33:57;9.63;;;7.30;;
19038;SDS011;9652;49.014;12.052;2023-01-30T11:36:26;9.13;;;6.87;;
19038;SDS011;9652;49.014;12.052;2023-01-30T11:38:57;8.13;;;6.00;;
19038;SDS011;9652;49.014;12.052;2023-01-30T11:41:27;6.70;;;5.67;;
19038;SDS011;9652;49.014;12.052;2023-01-30T11:43:59;10.00;;;6.80;;
19038;SDS011;9652;49.014;12.052;2023-01-30T11:46:32;8.10;;;6.17;;
19038;SDS011;9652;49.014;12.052;2023-01-30T11:49:03;6.80;;;5.97;;
19038;SDS011;9652;49.014;12.052;2023-01-30T11:51:37;7.67;;;5.97;;
19038;SDS011;9652;49.014;12.052;2023-01-30T11:54:10;7.90;;;5.83;;
19038;SDS011;9652;49.014;12.052;2023-01-30T11:56:44;7.77;;;5.40;;
19038;SDS011;9652;49.014;12.052;2023-01-30T11:59:20;6.13;;;5.20;;
19038;SDS011;9652;49.014;12.052;2023-01-30T12:02:01;6.10;;;5.10;;
19038;SDS011;9652;49.014;12.052;2023-01-30T12:04:37;6.00;;;5.40;;
19038;SDS011;9652;49.014;12.052;2023-01-30T12:07:14;7.03;;;5.30;;
19038;SDS011;9652;49.014;12.052;2023-01-30T12:09:46;6.83;;;5.33;;
19038;SDS011;9652;49.014;12.052;2023-01-30T12:12:28;6.87;;;4.90;;
19038;SDS011;9652;49.014;12.052;2023-01-30T12:15:09;6.73;;;5.10;;
19038;SDS011;9652;49.014;12.052;2023-01-30T12:17:50;5.70;;;4.40;;
19038;SDS011;9652;49.014;12.052;2023-01-30T12:20:29;6.00;;;5.13;;
19038;SDS011;9652;49.014;12.052;2023-01-30T12:23:11;6.47;;;5.00;;
19038;SDS011;9652;49.014;12.052;2023-01-30T12:25:46;7.90;;;5.50;;
19038;SDS011;9652;49.014;12.052;2023-01-30T12:28:24;6.67;;;5.03;;
19038;SDS011;9652;49.014;12.052;2023-01-30T12:31:03;7.87;;;4.97;;
19038;SDS011;9652;49.014;12.052;2023-01-30T12:33:38;6.17;;;5.13;;
19038;SDS011;9652;49.014;12.052;2023-01-30T12:36:08;7.40;;;5.73;;
19038;SDS011;9652;49.014;12.052;2023-01-30T12:38:58;6.00;;;5.03;;
19038;SDS011;9652;49.014;12.052;2023-01-30T12:41:43;5.70;;;4.57;;
19038;SDS011;9652;49.014;12.052;2023-01-30T12:44:37;5.90;;;5.27;;
19038;SDS011;9652;49.014;12.052;2023-01-30T12:47:26;6.47;;;5.17;;
19038;SDS011;9652;49.014;12.052;2023-01-30T12:50:16;6.10;;;4.47;;
19038;SDS011;9652;49.014;12.052;2023-01-30T12:52:55;5.23;;;4.73;;
19038;SDS011;9652;49.014;12.052;2023-01-30T12:55:56;6.60;;;5.57;;
19038;SDS011;9652;49.014;12.052;2023-01-30T12:58:53;7.07;;;4.73;;
19038;SDS011;9652;49.014;12.052;2023-01-30T13:01:32;5.57;;;4.90;;
19038;SDS011;9652;49.014;12.052;2023-01-30T13:04:15;5.30;;;4.80;;
19038;SDS011;9652;49.014;12.052;2023-01-30T13:07:00;5.33;;;4.83;;
19038;SDS011;9652;49.014;12.052;2023-01-30T13:12:42;4.30;;;3.87;;
19038;SDS011;9652;49.014;12.052;2023-01-30T13:15:23;5.17;;;4.30;;
19038;SDS011;9652;49.014;12.052;2023-01-30T13:18:03;5.77;;;5.27;;
19038;SDS011;9652;49.014;12.052;2023-01-30T13:20:45;6.20;;;5.00;;
19038;SDS011;9652;49.014;12.052;2023-01-30T13:23:27;5.60;;;5.00;;
19038;SDS011;9652;49.014;12.052;2023-01-30T13:26:07;7.70;;;4.87;;
19038;SDS011;9652;49.014;12.052;2023-01-30T13:28:40;5.93;;;4.83;;
19038;SDS011;9652;49.014;12.052;2023-01-30T13:31:13;5.03;;;4.63;;
19038;SDS011;9652;49.014;12.052;2023-01-30T13:33:45;5.40;;;4.87;;
19038;SDS011;9652;49.014;12.052;2023-01-30T13:36:17;5.13;;;4.53;;
19038;SDS011;9652;49.014;12.052;2023-01-30T13:38:55;7.13;;;5.00;;
19038;SDS011;9652;49.014;12.052;2023-01-30T13:41:28;4.97;;;4.47;;
19038;SDS011;9652;49.014;12.052;2023-01-30T13:44:05;5.70;;;4.43;;
19038;SDS011;9652;49.014;12.052;2023-01-30T13:46:42;5.50;;;4.97;;
19038;SDS011;9652;49.014;12.052;2023-01-30T13:49:12;5.17;;;4.67;;
19038;SDS011;9652;49.014;12.052;2023-01-30T13:51:48;5.50;;;4.23;;
19038;SDS011;9652;49.014;12.052;2023-01-30T13:54:29;4.00;;;3.60;;
19038;SDS011;9652;49.014;12.052;2023-01-30T13:57:13;4.43;;;3.97;;
19038;SDS011;9652;49.014;12.052;2023-01-30T14:00:03;5.67;;;4.00;;
19038;SDS011;9652;49.014;12.052;2023-01-30T14:06:00;4.90;;;4.20;;
19038;SDS011;9652;49.014;12.052;2023-01-30T14:09:19;4.13;;;3.77;;
19038;SDS011;9652;49.014;12.052;2023-01-30T14:11:59;4.00;;;3.60;;
19038;SDS011;9652;49.014;12.052;2023-01-30T14:14:29;4.27;;;3.80;;
19038;SDS011;9652;49.014;12.052;2023-01-30T14:17:07;5.50;;;4.60;;
19038;SDS011;9652;49.014;12.052;2023-01-30T14:19:39;4.60;;;4.20;;
19038;SDS011;9652;49.014;12.052;2023-01-30T14:22:19;4.60;;;3.77;;
19038;SDS011;9652;49.014;12.052;2023-01-30T14:38:02;3.90;;;3.60;;
19038;SDS011;9652;49.014;12.052;2023-01-30T14:40:41;4.47;;;4.17;;
19038;SDS011;9652;49.014;12.052;2023-01-30T14:43:52;3.87;;;3.33;;
19038;SDS011;9652;49.014;12.052;2023-01-30T14:46:38;4.63;;;4.23;;
19038;SDS011;9652;49.014;12.052;2023-01-30T14:51:58;3.90;;;3.60;;
19038;SDS011;9652;49.014;12.052;2023-01-30T14:54:38;3.97;;;3.67;;
19038;SDS011;9652;49.014;12.052;2023-01-30T14:57:16;4.10;;;3.80;;
19038;SDS011;9652;49.014;12.052;2023-01-30T14:59:51;3.73;;;3.50;;
19038;SDS011;9652;49.014;12.052;2023-01-30T15:02:24;3.57;;;3.37;;
19038;SDS011;9652;49.014;12.052;2023-01-30T15:04:56;4.83;;;4.13;;
19038;SDS011;9652;49.014;12.052;2023-01-30T15:07:31;3.70;;;3.40;;
19038;SDS011;9652;49.014;12.052;2023-01-30T15:10:11;4.30;;;4.00;;
19038;SDS011;9652;49.014;12.052;2023-01-30T15:16:00;3.60;;;3.30;;
19038;SDS011;9652;49.014;12.052;2023-01-30T15:18:50;3.93;;;3.63;;
19038;SDS011;9652;49.014;12.052;2023-01-30T15:21:34;4.03;;;3.63;;
19038;SDS011;9652;49.014;12.052;2023-01-30T15:24:24;4.13;;;3.77;;
19038;SDS011;9652;49.014;12.052;2023-01-30T15:27:26;3.80;;;3.50;;
19038;SDS011;9652;49.014;12.052;2023-01-30T15:30:14;3.77;;;3.43;;
19038;SDS011;9652;49.014;12.052;2023-01-30T15:32:50;4.70;;;4.00;;
19038;SDS011;9652;49.014;12.052;2023-01-30T15:35:39;3.80;;;3.50;;
19038;SDS011;9652;49.014;12.052;2023-01-30T15:38:16;5.03;;;4.40;;
19038;SDS011;9652;49.014;12.052;2023-01-30T15:40:50;4.70;;;3.90;;
19038;SDS011;9652;49.014;12.052;2023-01-30T15:43:34;4.10;;;3.80;;
19038;SDS011;9652;49.014;12.052;2023-01-30T15:46:20;4.83;;;4.30;;